sensor_id;sensor_type;location;lat;lon;timestamp;P1;durP1;ratioP1;P2;durP2;ratioP2
9256;SDS011;4665;51.368;6.782;2023-05-07T00:01:03;3.40;;;3.10;;
9256;SDS011;4665;51.368;6.782;2023-05-07T00:03:30;3.00;;;2.80;;
9256;SDS011;4665;51.368;6.782;2023-05-07T00:05:56;3.43;;;3.03;;
9256;SDS011;4665;51.368;6.782;2023-05-07T00:08:21;3.77;;;3.30;;
9256;SDS011;4665;51.368;6.782;2023-05-07T00:10:47;3.60;;;3.30;;
9256;SDS011;4665;51.368;6.782;2023-05-07T00:13:12;3.50;;;3.20;;
9256;SDS011;4665;51.368;6.782;2023-05-07T00:15:38;3.57;;;3.27;;
9256;SDS011;4665;51.368;6.782;2023-05-07T00:18:03;3.30;;;3.10;;
9256;SDS011;4665;51.368;6.782;2023-05-07T00:20:29;3.10;;;2.90;;
9256;SDS011;4665;51.368;6.782;2023-05-07T00:22:54;3.37;;;3.17;;
9256;SDS011;4665;51.368;6.782;2023-05-07T00:25:19;3.50;;;3.30;;
9256;SDS011;4665;51.368;6.782;2023-05-07T00:27:45;3.10;;;2.90;;
9256;SDS011;4665;51.368;6.782;2023-05-07T00:30:10;3.07;;;2.80;;
9256;SDS011;4665;51.368;6.782;2023-05-07T00:32:36;3.93;;;2.90;;
9256;SDS011;4665;51.368;6.782;2023-05-07T00:35:02;2.40;;;2.30;;
9256;SDS011;4665;51.368;6.782;2023-05-07T00:37:28;2.70;;;2.60;;
9256;SDS011;4665;51.368;6.782;2023-05-07T00:39:54;3.10;;;2.80;;
9256;SDS011;4665;51.368;6.782;2023-05-07T00:42:20;3.00;;;2.80;;
9256;SDS011;4665;51.368;6.782;2023-05-07T00:44:45;3.40;;;3.20;;
9256;SDS011;4665;51.368;6.782;2023-05-07T00:47:11;3.23;;;3.03;;
9256;SDS011;4665;51.368;6.782;2023-05-07T00:49:38;3.10;;;2.90;;
9256;SDS011;4665;51.368;6.782;2023-05-07T00:52:06;3.20;;;3.00;;
9256;SDS011;4665;51.368;6.782;2023-05-07T00:54:33;2.63;;;2.50;;
9256;SDS011;4665;51.368;6.782;2023-05-07T00:56:59;5.00;;;3.40;;
9256;SDS011;4665;51.368;6.782;2023-05-07T00:59:25;3.50;;;3.20;;
9256;SDS011;4665;51.368;6.782;2023-05-07T01:01:51;3.30;;;3.00;;
9256;SDS011;4665;51.368;6.782;2023-05-07T01:04:17;3.20;;;2.90;;
9256;SDS011;4665;51.368;6.782;2023-05-07T01:06:42;3.40;;;3.20;;
9256;SDS011;4665;51.368;6.782;2023-05-07T01:09:09;3.20;;;3.00;;
9256;SDS011;4665;51.368;6.782;2023-05-07T01:11:35;3.20;;;3.00;;
9256;SDS011;4665;51.368;6.782;2023-05-07T01:14:00;3.70;;;3.50;;
9256;SDS011;4665;51.368;6.782;2023-05-07T01:16:26;3.80;;;3.50;;
9256;SDS011;4665;51.368;6.782;2023-05-07T01:18:52;4.27;;;3.60;;
9256;SDS011;4665;51.368;6.782;2023-05-07T01:21:18;4.17;;;3.87;;
9256;SDS011;4665;51.368;6.782;2023-05-07T01:23:44;4.50;;;3.77;;
9256;SDS011;4665;51.368;6.782;2023-05-07T01:26:10;4.00;;;3.67;;
9256;SDS011;4665;51.368;6.782;2023-05-07T01:28:35;5.67;;;3.60;;
9256;SDS011;4665;51.368;6.782;2023-05-07T01:31:01;3.93;;;3.63;;
9256;SDS011;4665;51.368;6.782;2023-05-07T01:33:29;3.50;;;3.30;;
9256;SDS011;4665;51.368;6.782;2023-05-07T01:35:58;3.87;;;3.53;;
9256;SDS011;4665;51.368;6.782;2023-05-07T01:38:27;3.93;;;3.53;;
9256;SDS011;4665;51.368;6.782;2023-05-07T01:40:53;3.80;;;3.50;;
9256;SDS011;4665;51.368;6.782;2023-05-07T01:43:19;3.83;;;3.00;;
9256;SDS011;4665;51.368;6.782;2023-05-07T01:45:45;3.53;;;3.30;;
9256;SDS011;4665;51.368;6.782;2023-05-07T01:48:11;3.63;;;3.40;;
9256;SDS011;4665;51.368;6.782;2023-05-07T01:50:39;3.80;;;3.37;;
9256;SDS011;4665;51.368;6.782;2023-05-07T01:53:04;3.43;;;3.23;;
9256;SDS011;4665;51.368;6.782;2023-05-07T01:55:30;4.27;;;3.90;;
9256;SDS011;4665;51.368;6.782;2023-05-07T01:57:55;4.20;;;3.40;;
9256;SDS011;4665;51.368;6.782;2023-05-07T02:00:23;4.20;;;3.60;;
9256;SDS011;4665;51.368;6.782;2023-05-07T02:02:49;3.27;;;3.07;;
9256;SDS011;4665;51.368;6.782;2023-05-07T02:05:14;3.90;;;3.60;;
9256;SDS011;4665;51.368;6.782;2023-05-07T02:07:40;5.00;;;4.23;;
9256;SDS011;4665;51.368;6.782;2023-05-07T02:10:05;3.37;;;3.10;;
9256;SDS011;4665;51.368;6.782;2023-05-07T02:12:31;3.30;;;3.00;;
9256;SDS011;4665;51.368;6.782;2023-05-07T02:14:56;3.60;;;3.30;;
9256;SDS011;4665;51.368;6.782;2023-05-07T02:17:22;3.90;;;3.60;;
9256;SDS011;4665;51.368;6.782;2023-05-07T02:19:47;4.10;;;3.80;;
9256;SDS011;4665;51.368;6.782;2023-05-07T02:22:12;4.10;;;3.80;;
9256;SDS011;4665;51.368;6.782;2023-05-07T02:24:38;4.30;;;4.00;;
9256;SDS011;4665;51.368;6.782;2023-05-07T02:27:03;4.20;;;3.80;;
9256;SDS011;4665;51.368;6.782;2023-05-07T02:29:29;3.97;;;3.53;;
9256;SDS011;4665;51.368;6.782;2023-05-07T02:31:54;5.77;;;3.90;;
9256;SDS011;4665;51.368;6.782;2023-05-07T02:34:20;4.13;;;3.83;;
9256;SDS011;4665;51.368;6.782;2023-05-07T02:36:46;4.03;;;3.70;;
9256;SDS011;4665;51.368;6.782;2023-05-07T02:39:12;4.10;;;3.80;;
9256;SDS011;4665;51.368;6.782;2023-05-07T02:41:37;4.60;;;3.67;;
9256;SDS011;4665;51.368;6.782;2023-05-07T02:44:03;4.03;;;3.73;;
9256;SDS011;4665;51.368;6.782;2023-05-07T02:46:29;3.90;;;3.60;;
9256;SDS011;4665;51.368;6.782;2023-05-07T02:48:54;4.63;;;4.10;;
9256;SDS011;4665;51.368;6.782;2023-05-07T02:51:20;3.80;;;3.60;;
9256;SDS011;4665;51.368;6.782;2023-05-07T02:53:47;3.77;;;3.30;;
9256;SDS011;4665;51.368;6.782;2023-05-07T02:56:12;3.30;;;3.10;;
9256;SDS011;4665;51.368;6.782;2023-05-07T02:58:38;3.70;;;3.50;;
9256;SDS011;4665;51.368;6.782;2023-05-07T03:01:09;4.10;;;3.70;;
9256;SDS011;4665;51.368;6.782;2023-05-07T03:03:35;4.23;;;3.67;;
9256;SDS011;4665;51.368;6.782;2023-05-07T03:06:01;4.20;;;3.80;;
9256;SDS011;4665;51.368;6.782;2023-05-07T03:08:26;3.57;;;3.37;;
9256;SDS011;4665;51.368;6.782;2023-05-07T03:10:52;3.97;;;3.57;;
9256;SDS011;4665;51.368;6.782;2023-05-07T03:13:18;3.57;;;3.37;;
9256;SDS011;4665;51.368;6.782;2023-05-07T03:15:43;3.90;;;3.60;;
9256;SDS011;4665;51.368;6.782;2023-05-07T03:18:08;4.47;;;3.80;;
9256;SDS011;4665;51.368;6.782;2023-05-07T03:20:34;3.50;;;3.30;;
9256;SDS011;4665;51.368;6.782;2023-05-07T03:22:59;4.07;;;3.53;;
9256;SDS011;4665;51.368;6.782;2023-05-07T03:25:25;4.17;;;3.77;;
9256;SDS011;4665;51.368;6.782;2023-05-07T03:27:50;4.17;;;3.87;;
9256;SDS011;4665;51.368;6.782;2023-05-07T03:30:16;4.57;;;4.07;;
9256;SDS011;4665;51.368;6.782;2023-05-07T03:32:41;4.00;;;3.70;;
9256;SDS011;4665;51.368;6.782;2023-05-07T03:35:07;4.10;;;3.90;;
9256;SDS011;4665;51.368;6.782;2023-05-07T03:37:32;3.70;;;3.40;;
9256;SDS011;4665;51.368;6.782;2023-05-07T03:39:58;4.03;;;3.73;;
9256;SDS011;4665;51.368;6.782;2023-05-07T03:42:23;4.10;;;3.77;;
9256;SDS011;4665;51.368;6.782;2023-05-07T03:44:49;3.63;;;3.33;;
9256;SDS011;4665;51.368;6.782;2023-05-07T03:47:14;3.50;;;3.30;;
9256;SDS011;4665;51.368;6.782;2023-05-07T03:49:39;4.47;;;4.07;;
9256;SDS011;4665;51.368;6.782;2023-05-07T03:52:05;4.20;;;3.90;;
9256;SDS011;4665;51.368;6.782;2023-05-07T03:54:31;4.70;;;4.30;;
9256;SDS011;4665;51.368;6.782;2023-05-07T03:56:56;4.67;;;4.23;;
9256;SDS011;4665;51.368;6.782;2023-05-07T03:59:22;4.03;;;3.73;;
9256;SDS011;4665;51.368;6.782;2023-05-07T04:01:47;4.10;;;3.80;;
9256;SDS011;4665;51.368;6.782;2023-05-07T04:04:13;4.47;;;4.07;;
9256;SDS011;4665;51.368;6.782;2023-05-07T04:06:39;3.83;;;3.57;;
9256;SDS011;4665;51.368;6.782;2023-05-07T04:09:05;4.27;;;3.90;;
9256;SDS011;4665;51.368;6.782;2023-05-07T04:11:30;6.00;;;3.90;;
9256;SDS011;4665;51.368;6.782;2023-05-07T04:13:55;3.60;;;3.40;;
9256;SDS011;4665;51.368;6.782;2023-05-07T04:16:21;3.70;;;3.50;;
9256;SDS011;4665;51.368;6.782;2023-05-07T04:18:46;4.73;;;4.37;;
9256;SDS011;4665;51.368;6.782;2023-05-07T04:21:15;4.30;;;3.90;;
9256;SDS011;4665;51.368;6.782;2023-05-07T04:23:41;4.53;;;4.23;;
9256;SDS011;4665;51.368;6.782;2023-05-07T04:26:07;7.20;;;3.90;;
9256;SDS011;4665;51.368;6.782;2023-05-07T04:28:32;3.60;;;3.40;;
9256;SDS011;4665;51.368;6.782;2023-05-07T04:30:57;4.07;;;3.77;;
9256;SDS011;4665;51.368;6.782;2023-05-07T04:33:23;3.83;;;3.60;;
9256;SDS011;4665;51.368;6.782;2023-05-07T04:35:48;3.77;;;3.47;;
9256;SDS011;4665;51.368;6.782;2023-05-07T04:38:14;3.53;;;3.33;;
9256;SDS011;4665;51.368;6.782;2023-05-07T04:40:39;3.20;;;3.00;;
9256;SDS011;4665;51.368;6.782;2023-05-07T04:43:05;3.73;;;3.53;;
9256;SDS011;4665;51.368;6.782;2023-05-07T04:45:30;4.43;;;3.67;;
9256;SDS011;4665;51.368;6.782;2023-05-07T04:47:55;3.20;;;3.00;;
9256;SDS011;4665;51.368;6.782;2023-05-07T04:50:21;3.57;;;3.27;;
9256;SDS011;4665;51.368;6.782;2023-05-07T04:52:48;3.37;;;3.17;;
9256;SDS011;4665;51.368;6.782;2023-05-07T04:55:13;3.70;;;3.40;;
9256;SDS011;4665;51.368;6.782;2023-05-07T04:57:39;3.77;;;3.53;;
9256;SDS011;4665;51.368;6.782;2023-05-07T05:00:06;3.77;;;3.47;;
9256;SDS011;4665;51.368;6.782;2023-05-07T05:02:34;3.37;;;3.07;;
9256;SDS011;4665;51.368;6.782;2023-05-07T05:05:00;3.40;;;3.20;;
9256;SDS011;4665;51.368;6.782;2023-05-07T05:07:27;3.43;;;3.13;;
9256;SDS011;4665;51.368;6.782;2023-05-07T05:09:53;4.30;;;3.90;;
9256;SDS011;4665;51.368;6.782;2023-05-07T05:12:18;3.87;;;3.60;;
9256;SDS011;4665;51.368;6.782;2023-05-07T05:14:44;3.90;;;3.60;;
9256;SDS011;4665;51.368;6.782;2023-05-07T05:17:09;3.80;;;3.40;;
9256;SDS011;4665;51.368;6.782;2023-05-07T05:19:35;3.97;;;3.67;;
9256;SDS011;4665;51.368;6.782;2023-05-07T05:22:00;4.00;;;3.70;;
9256;SDS011;4665;51.368;6.782;2023-05-07T05:24:26;3.63;;;3.33;;
9256;SDS011;4665;51.368;6.782;2023-05-07T05:26:52;3.77;;;3.57;;
9256;SDS011;4665;51.368;6.782;2023-05-07T05:29:18;4.80;;;4.40;;
9256;SDS011;4665;51.368;6.782;2023-05-07T05:31:43;4.07;;;3.77;;
9256;SDS011;4665;51.368;6.782;2023-05-07T05:34:09;4.40;;;4.10;;
9256;SDS011;4665;51.368;6.782;2023-05-07T05:36:34;6.10;;;5.60;;
9256;SDS011;4665;51.368;6.782;2023-05-07T05:39:00;5.20;;;4.70;;
9256;SDS011;4665;51.368;6.782;2023-05-07T05:41:25;4.90;;;4.50;;
9256;SDS011;4665;51.368;6.782;2023-05-07T05:43:50;5.73;;;5.20;;
9256;SDS011;4665;51.368;6.782;2023-05-07T05:46:16;5.67;;;5.20;;
9256;SDS011;4665;51.368;6.782;2023-05-07T05:48:41;6.27;;;5.80;;
9256;SDS011;4665;51.368;6.782;2023-05-07T05:51:06;6.73;;;6.13;;
9256;SDS011;4665;51.368;6.782;2023-05-07T05:53:32;5.73;;;5.07;;
9256;SDS011;4665;51.368;6.782;2023-05-07T05:55:57;6.13;;;5.50;;
9256;SDS011;4665;51.368;6.782;2023-05-07T05:58:23;6.13;;;5.57;;
9256;SDS011;4665;51.368;6.782;2023-05-07T06:00:48;5.57;;;5.07;;
9256;SDS011;4665;51.368;6.782;2023-05-07T06:03:17;5.30;;;4.90;;
9256;SDS011;4665;51.368;6.782;2023-05-07T06:05:42;4.67;;;4.37;;
9256;SDS011;4665;51.368;6.782;2023-05-07T06:08:07;7.53;;;5.37;;
9256;SDS011;4665;51.368;6.782;2023-05-07T06:10:33;5.13;;;4.73;;
9256;SDS011;4665;51.368;6.782;2023-05-07T06:12:58;4.63;;;4.27;;
9256;SDS011;4665;51.368;6.782;2023-05-07T06:15:23;4.50;;;4.20;;
9256;SDS011;4665;51.368;6.782;2023-05-07T06:17:49;4.33;;;4.03;;
9256;SDS011;4665;51.368;6.782;2023-05-07T06:20:14;4.27;;;3.97;;
9256;SDS011;4665;51.368;6.782;2023-05-07T06:22:40;4.00;;;3.80;;
9256;SDS011;4665;51.368;6.782;2023-05-07T06:25:05;4.60;;;4.30;;
9256;SDS011;4665;51.368;6.782;2023-05-07T06:27:31;4.83;;;4.43;;
9256;SDS011;4665;51.368;6.782;2023-05-07T06:29:57;3.87;;;3.57;;
9256;SDS011;4665;51.368;6.782;2023-05-07T06:32:22;4.57;;;4.17;;
9256;SDS011;4665;51.368;6.782;2023-05-07T06:34:47;5.13;;;4.03;;
9256;SDS011;4665;51.368;6.782;2023-05-07T06:37:13;4.80;;;3.60;;
9256;SDS011;4665;51.368;6.782;2023-05-07T06:39:38;4.27;;;3.87;;
9256;SDS011;4665;51.368;6.782;2023-05-07T06:42:04;3.67;;;3.37;;
9256;SDS011;4665;51.368;6.782;2023-05-07T06:44:29;4.13;;;3.70;;
9256;SDS011;4665;51.368;6.782;2023-05-07T06:46:55;3.83;;;3.60;;
9256;SDS011;4665;51.368;6.782;2023-05-07T06:49:21;4.20;;;3.80;;
9256;SDS011;4665;51.368;6.782;2023-05-07T06:51:46;3.43;;;3.23;;
9256;SDS011;4665;51.368;6.782;2023-05-07T06:54:11;3.20;;;2.90;;
9256;SDS011;4665;51.368;6.782;2023-05-07T06:56:37;4.03;;;3.73;;
9256;SDS011;4665;51.368;6.782;2023-05-07T06:59:02;3.13;;;2.90;;
9256;SDS011;4665;51.368;6.782;2023-05-07T07:01:28;3.93;;;3.07;;
9256;SDS011;4665;51.368;6.782;2023-05-07T07:03:54;3.80;;;3.40;;
9256;SDS011;4665;51.368;6.782;2023-05-07T07:06:19;3.27;;;3.07;;
9256;SDS011;4665;51.368;6.782;2023-05-07T07:08:45;3.40;;;3.20;;
9256;SDS011;4665;51.368;6.782;2023-05-07T07:11:10;3.53;;;3.23;;
9256;SDS011;4665;51.368;6.782;2023-05-07T07:13:35;3.30;;;2.80;;
9256;SDS011;4665;51.368;6.782;2023-05-07T07:16:01;3.20;;;3.00;;
9256;SDS011;4665;51.368;6.782;2023-05-07T07:18:27;3.23;;;2.63;;
9256;SDS011;4665;51.368;6.782;2023-05-07T07:20:52;3.17;;;2.87;;
9256;SDS011;4665;51.368;6.782;2023-05-07T07:23:18;3.23;;;3.03;;
9256;SDS011;4665;51.368;6.782;2023-05-07T07:25:43;2.97;;;2.77;;
9256;SDS011;4665;51.368;6.782;2023-05-07T07:28:09;2.83;;;2.63;;
9256;SDS011;4665;51.368;6.782;2023-05-07T07:30:35;4.17;;;2.50;;
9256;SDS011;4665;51.368;6.782;2023-05-07T07:33:01;2.90;;;2.70;;
9256;SDS011;4665;51.368;6.782;2023-05-07T07:35:30;3.10;;;2.90;;
9256;SDS011;4665;51.368;6.782;2023-05-07T07:37:56;2.90;;;2.60;;
9256;SDS011;4665;51.368;6.782;2023-05-07T07:40:22;3.20;;;2.90;;
9256;SDS011;4665;51.368;6.782;2023-05-07T07:42:48;2.83;;;2.63;;
9256;SDS011;4665;51.368;6.782;2023-05-07T07:45:13;2.70;;;2.50;;
9256;SDS011;4665;51.368;6.782;2023-05-07T07:47:39;3.73;;;3.03;;
9256;SDS011;4665;51.368;6.782;2023-05-07T07:50:05;2.83;;;2.63;;
9256;SDS011;4665;51.368;6.782;2023-05-07T07:52:32;3.13;;;2.93;;
9256;SDS011;4665;51.368;6.782;2023-05-07T07:54:57;2.87;;;2.67;;
9256;SDS011;4665;51.368;6.782;2023-05-07T07:57:23;2.70;;;2.50;;
9256;SDS011;4665;51.368;6.782;2023-05-07T07:59:50;2.77;;;2.57;;
9256;SDS011;4665;51.368;6.782;2023-05-07T08:02:16;3.60;;;2.70;;
9256;SDS011;4665;51.368;6.782;2023-05-07T08:04:42;2.43;;;2.30;;
9256;SDS011;4665;51.368;6.782;2023-05-07T08:07:08;2.53;;;2.33;;
9256;SDS011;4665;51.368;6.782;2023-05-07T08:09:34;2.40;;;2.30;;
9256;SDS011;4665;51.368;6.782;2023-05-07T08:12:00;2.00;;;1.90;;
9256;SDS011;4665;51.368;6.782;2023-05-07T08:14:26;2.33;;;2.23;;
9256;SDS011;4665;51.368;6.782;2023-05-07T08:16:53;2.87;;;2.33;;
9256;SDS011;4665;51.368;6.782;2023-05-07T08:19:18;2.50;;;2.30;;
9256;SDS011;4665;51.368;6.782;2023-05-07T08:21:44;2.00;;;1.90;;
9256;SDS011;4665;51.368;6.782;2023-05-07T08:24:12;2.80;;;2.27;;
9256;SDS011;4665;51.368;6.782;2023-05-07T08:26:38;3.30;;;2.47;;
9256;SDS011;4665;51.368;6.782;2023-05-07T08:29:04;2.30;;;2.07;;
9256;SDS011;4665;51.368;6.782;2023-05-07T08:31:29;2.30;;;2.10;;
9256;SDS011;4665;51.368;6.782;2023-05-07T08:33:55;2.20;;;2.10;;
9256;SDS011;4665;51.368;6.782;2023-05-07T08:36:21;1.90;;;1.80;;
9256;SDS011;4665;51.368;6.782;2023-05-07T08:38:46;2.20;;;2.10;;
9256;SDS011;4665;51.368;6.782;2023-05-07T08:41:11;2.37;;;2.17;;
9256;SDS011;4665;51.368;6.782;2023-05-07T08:43:37;2.50;;;2.07;;
9256;SDS011;4665;51.368;6.782;2023-05-07T08:46:05;2.30;;;2.10;;
9256;SDS011;4665;51.368;6.782;2023-05-07T08:48:31;2.20;;;2.10;;
9256;SDS011;4665;51.368;6.782;2023-05-07T08:50:58;2.00;;;1.90;;
9256;SDS011;4665;51.368;6.782;2023-05-07T08:53:23;3.13;;;1.90;;
9256;SDS011;4665;51.368;6.782;2023-05-07T08:55:49;1.83;;;1.73;;
9256;SDS011;4665;51.368;6.782;2023-05-07T08:58:15;2.30;;;2.10;;
9256;SDS011;4665;51.368;6.782;2023-05-07T09:00:40;2.10;;;2.00;;
9256;SDS011;4665;51.368;6.782;2023-05-07T09:03:06;2.67;;;1.80;;
9256;SDS011;4665;51.368;6.782;2023-05-07T09:05:32;2.27;;;1.90;;
9256;SDS011;4665;51.368;6.782;2023-05-07T09:08:03;4.63;;;2.37;;
9256;SDS011;4665;51.368;6.782;2023-05-07T09:10:34;2.20;;;2.00;;
9256;SDS011;4665;51.368;6.782;2023-05-07T09:12:59;1.70;;;1.60;;
9256;SDS011;4665;51.368;6.782;2023-05-07T09:15:25;3.17;;;2.03;;
9256;SDS011;4665;51.368;6.782;2023-05-07T09:17:52;2.37;;;2.03;;
9256;SDS011;4665;51.368;6.782;2023-05-07T09:20:18;1.90;;;1.80;;
9256;SDS011;4665;51.368;6.782;2023-05-07T09:22:43;1.93;;;1.73;;
9256;SDS011;4665;51.368;6.782;2023-05-07T09:25:09;2.10;;;2.00;;
9256;SDS011;4665;51.368;6.782;2023-05-07T09:27:35;2.53;;;1.60;;
9256;SDS011;4665;51.368;6.782;2023-05-07T09:30:04;13.07;;;2.90;;
9256;SDS011;4665;51.368;6.782;2023-05-07T09:32:33;1.77;;;1.60;;
9256;SDS011;4665;51.368;6.782;2023-05-07T09:35:00;3.43;;;2.13;;
9256;SDS011;4665;51.368;6.782;2023-05-07T09:37:26;1.93;;;1.83;;
9256;SDS011;4665;51.368;6.782;2023-05-07T09:39:51;2.20;;;1.80;;
9256;SDS011;4665;51.368;6.782;2023-05-07T09:42:22;3.03;;;1.80;;
9256;SDS011;4665;51.368;6.782;2023-05-07T09:44:49;2.67;;;1.67;;
9256;SDS011;4665;51.368;6.782;2023-05-07T09:47:17;2.63;;;1.93;;
9256;SDS011;4665;51.368;6.782;2023-05-07T09:49:44;2.07;;;1.90;;
9256;SDS011;4665;51.368;6.782;2023-05-07T09:52:13;2.40;;;1.73;;
9256;SDS011;4665;51.368;6.782;2023-05-07T09:54:39;2.17;;;1.97;;
9256;SDS011;4665;51.368;6.782;2023-05-07T09:57:09;2.00;;;1.90;;
9256;SDS011;4665;51.368;6.782;2023-05-07T09:59:36;1.90;;;1.80;;
9256;SDS011;4665;51.368;6.782;2023-05-07T10:02:02;1.77;;;1.67;;
9256;SDS011;4665;51.368;6.782;2023-05-07T10:04:28;1.73;;;1.63;;
9256;SDS011;4665;51.368;6.782;2023-05-07T10:06:55;1.93;;;1.83;;
9256;SDS011;4665;51.368;6.782;2023-05-07T10:09:21;2.20;;;2.00;;
9256;SDS011;4665;51.368;6.782;2023-05-07T10:11:51;2.17;;;1.97;;
9256;SDS011;4665;51.368;6.782;2023-05-07T10:14:16;2.20;;;1.60;;
9256;SDS011;4665;51.368;6.782;2023-05-07T10:16:42;1.63;;;1.53;;
9256;SDS011;4665;51.368;6.782;2023-05-07T10:19:08;1.90;;;1.80;;
9256;SDS011;4665;51.368;6.782;2023-05-07T10:21:37;1.43;;;1.33;;
9256;SDS011;4665;51.368;6.782;2023-05-07T10:24:07;2.20;;;1.60;;
9256;SDS011;4665;51.368;6.782;2023-05-07T10:26:39;1.37;;;1.33;;
9256;SDS011;4665;51.368;6.782;2023-05-07T10:29:12;1.50;;;1.40;;
9256;SDS011;4665;51.368;6.782;2023-05-07T10:34:13;1.87;;;1.67;;
9256;SDS011;4665;51.368;6.782;2023-05-07T10:36:43;1.77;;;1.67;;
9256;SDS011;4665;51.368;6.782;2023-05-07T10:39:09;1.93;;;1.37;;
9256;SDS011;4665;51.368;6.782;2023-05-07T10:41:35;1.60;;;1.50;;
9256;SDS011;4665;51.368;6.782;2023-05-07T10:44:01;2.03;;;1.63;;
9256;SDS011;4665;51.368;6.782;2023-05-07T10:46:27;1.53;;;1.53;;
9256;SDS011;4665;51.368;6.782;2023-05-07T10:51:33;2.20;;;1.50;;
9256;SDS011;4665;51.368;6.782;2023-05-07T10:56:34;2.03;;;1.30;;
9256;SDS011;4665;51.368;6.782;2023-05-07T11:01:54;1.47;;;1.37;;
9256;SDS011;4665;51.368;6.782;2023-05-07T11:04:22;1.60;;;1.50;;
9256;SDS011;4665;51.368;6.782;2023-05-07T11:12:45;3.00;;;1.60;;
9256;SDS011;4665;51.368;6.782;2023-05-07T11:15:03;1.60;;;1.50;;
9256;SDS011;4665;51.368;6.782;2023-05-07T11:17:30;1.57;;;1.47;;
9256;SDS011;4665;51.368;6.782;2023-05-07T11:19:57;1.67;;;1.40;;
9256;SDS011;4665;51.368;6.782;2023-05-07T11:25:01;1.60;;;1.50;;
9256;SDS011;4665;51.368;6.782;2023-05-07T11:27:28;2.27;;;1.50;;
9256;SDS011;4665;51.368;6.782;2023-05-07T11:29:54;1.70;;;1.60;;
9256;SDS011;4665;51.368;6.782;2023-05-07T11:32:23;1.73;;;1.60;;
9256;SDS011;4665;51.368;6.782;2023-05-07T11:34:53;1.87;;;1.37;;
9256;SDS011;4665;51.368;6.782;2023-05-07T11:37:20;1.80;;;1.70;;
9256;SDS011;4665;51.368;6.782;2023-05-07T11:39:47;1.63;;;1.37;;
9256;SDS011;4665;51.368;6.782;2023-05-07T11:42:28;1.30;;;1.30;;
9256;SDS011;4665;51.368;6.782;2023-05-07T11:44:55;2.87;;;1.33;;
9256;SDS011;4665;51.368;6.782;2023-05-07T11:47:20;1.20;;;1.10;;
9256;SDS011;4665;51.368;6.782;2023-05-07T11:49:47;1.53;;;1.43;;
9256;SDS011;4665;51.368;6.782;2023-05-07T11:52:14;1.60;;;1.50;;
9256;SDS011;4665;51.368;6.782;2023-05-07T11:54:39;1.77;;;1.67;;
9256;SDS011;4665;51.368;6.782;2023-05-07T11:57:05;1.90;;;1.80;;
9256;SDS011;4665;51.368;6.782;2023-05-07T11:59:41;1.40;;;1.40;;
9256;SDS011;4665;51.368;6.782;2023-05-07T12:02:07;2.00;;;1.53;;
9256;SDS011;4665;51.368;6.782;2023-05-07T12:04:33;2.10;;;1.30;;
9256;SDS011;4665;51.368;6.782;2023-05-07T12:06:58;1.60;;;1.50;;
9256;SDS011;4665;51.368;6.782;2023-05-07T12:09:24;1.60;;;1.33;;
9256;SDS011;4665;51.368;6.782;2023-05-07T12:11:49;1.30;;;1.20;;
9256;SDS011;4665;51.368;6.782;2023-05-07T12:14:17;1.70;;;1.60;;
9256;SDS011;4665;51.368;6.782;2023-05-07T12:16:42;1.43;;;1.43;;
9256;SDS011;4665;51.368;6.782;2023-05-07T12:19:09;1.50;;;1.40;;
9256;SDS011;4665;51.368;6.782;2023-05-07T12:21:37;1.67;;;1.57;;
9256;SDS011;4665;51.368;6.782;2023-05-07T12:24:03;1.60;;;1.50;;
9256;SDS011;4665;51.368;6.782;2023-05-07T12:26:29;2.13;;;2.00;;
9256;SDS011;4665;51.368;6.782;2023-05-07T12:28:55;2.10;;;1.90;;
9256;SDS011;4665;51.368;6.782;2023-05-07T12:31:22;2.43;;;1.80;;
9256;SDS011;4665;51.368;6.782;2023-05-07T12:33:48;1.57;;;1.57;;
9256;SDS011;4665;51.368;6.782;2023-05-07T12:36:13;1.70;;;1.60;;
9256;SDS011;4665;51.368;6.782;2023-05-07T12:38:39;1.80;;;1.70;;
9256;SDS011;4665;51.368;6.782;2023-05-07T12:41:06;1.50;;;1.40;;
9256;SDS011;4665;51.368;6.782;2023-05-07T12:43:33;2.80;;;1.87;;
9256;SDS011;4665;51.368;6.782;2023-05-07T12:46:01;2.50;;;2.17;;
9256;SDS011;4665;51.368;6.782;2023-05-07T12:48:29;2.13;;;1.93;;
9256;SDS011;4665;51.368;6.782;2023-05-07T12:50:55;2.00;;;1.90;;
9256;SDS011;4665;51.368;6.782;2023-05-07T12:53:22;2.10;;;1.90;;
9256;SDS011;4665;51.368;6.782;2023-05-07T12:55:52;1.97;;;1.87;;
9256;SDS011;4665;51.368;6.782;2023-05-07T12:58:28;2.20;;;2.00;;
9256;SDS011;4665;51.368;6.782;2023-05-07T13:00:55;2.10;;;2.00;;
9256;SDS011;4665;51.368;6.782;2023-05-07T13:03:32;2.33;;;2.20;;
9256;SDS011;4665;51.368;6.782;2023-05-07T13:06:01;2.17;;;2.03;;
9256;SDS011;4665;51.368;6.782;2023-05-07T13:08:47;3.23;;;2.10;;
9256;SDS011;4665;51.368;6.782;2023-05-07T13:11:12;2.20;;;2.10;;
9256;SDS011;4665;51.368;6.782;2023-05-07T13:13:39;3.97;;;2.50;;
9256;SDS011;4665;51.368;6.782;2023-05-07T13:16:05;2.70;;;2.50;;
9256;SDS011;4665;51.368;6.782;2023-05-07T13:18:32;3.83;;;2.60;;
9256;SDS011;4665;51.368;6.782;2023-05-07T13:20:58;2.70;;;2.50;;
9256;SDS011;4665;51.368;6.782;2023-05-07T13:23:25;4.10;;;2.80;;
9256;SDS011;4665;51.368;6.782;2023-05-07T13:25:50;2.77;;;2.57;;
9256;SDS011;4665;51.368;6.782;2023-05-07T13:28:18;3.63;;;3.07;;
9256;SDS011;4665;51.368;6.782;2023-05-07T13:30:45;2.90;;;2.70;;
9256;SDS011;4665;51.368;6.782;2023-05-07T13:33:11;3.40;;;3.10;;
9256;SDS011;4665;51.368;6.782;2023-05-07T13:35:37;3.77;;;3.20;;
9256;SDS011;4665;51.368;6.782;2023-05-07T13:38:02;2.90;;;2.70;;
9256;SDS011;4665;51.368;6.782;2023-05-07T13:40:28;3.10;;;2.90;;
9256;SDS011;4665;51.368;6.782;2023-05-07T13:42:53;2.80;;;2.60;;
9256;SDS011;4665;51.368;6.782;2023-05-07T13:45:19;3.13;;;2.93;;
9256;SDS011;4665;51.368;6.782;2023-05-07T13:47:45;2.90;;;2.70;;
9256;SDS011;4665;51.368;6.782;2023-05-07T13:50:11;2.67;;;2.57;;
9256;SDS011;4665;51.368;6.782;2023-05-07T13:52:40;3.20;;;2.90;;
9256;SDS011;4665;51.368;6.782;2023-05-07T13:55:07;3.87;;;3.23;;
9256;SDS011;4665;51.368;6.782;2023-05-07T13:57:33;3.17;;;2.97;;
9256;SDS011;4665;51.368;6.782;2023-05-07T13:59:59;3.33;;;3.00;;
9256;SDS011;4665;51.368;6.782;2023-05-07T14:02:24;4.07;;;3.77;;
9256;SDS011;4665;51.368;6.782;2023-05-07T14:04:49;3.47;;;3.27;;
9256;SDS011;4665;51.368;6.782;2023-05-07T14:07:15;5.13;;;3.73;;
9256;SDS011;4665;51.368;6.782;2023-05-07T14:09:40;3.70;;;3.40;;
9256;SDS011;4665;51.368;6.782;2023-05-07T14:12:06;4.77;;;3.87;;
9256;SDS011;4665;51.368;6.782;2023-05-07T14:14:31;4.23;;;3.83;;
9256;SDS011;4665;51.368;6.782;2023-05-07T14:16:56;4.13;;;3.47;;
9256;SDS011;4665;51.368;6.782;2023-05-07T14:19:22;3.57;;;3.37;;
9256;SDS011;4665;51.368;6.782;2023-05-07T14:21:47;3.80;;;3.50;;
9256;SDS011;4665;51.368;6.782;2023-05-07T14:24:13;4.37;;;4.00;;
9256;SDS011;4665;51.368;6.782;2023-05-07T14:26:39;4.23;;;3.60;;
9256;SDS011;4665;51.368;6.782;2023-05-07T14:29:04;3.30;;;3.10;;
9256;SDS011;4665;51.368;6.782;2023-05-07T14:31:30;4.17;;;3.77;;
9256;SDS011;4665;51.368;6.782;2023-05-07T14:33:55;4.83;;;4.43;;
9256;SDS011;4665;51.368;6.782;2023-05-07T14:36:22;5.23;;;4.47;;
9256;SDS011;4665;51.368;6.782;2023-05-07T14:38:51;4.57;;;3.97;;
9256;SDS011;4665;51.368;6.782;2023-05-07T14:41:17;4.90;;;4.50;;
9256;SDS011;4665;51.368;6.782;2023-05-07T14:43:43;4.70;;;4.30;;
9256;SDS011;4665;51.368;6.782;2023-05-07T14:46:14;4.20;;;3.90;;
9256;SDS011;4665;51.368;6.782;2023-05-07T14:48:40;5.60;;;4.13;;
9256;SDS011;4665;51.368;6.782;2023-05-07T14:51:05;4.90;;;4.50;;
9256;SDS011;4665;51.368;6.782;2023-05-07T14:53:31;4.60;;;4.20;;
9256;SDS011;4665;51.368;6.782;2023-05-07T14:55:56;7.40;;;4.60;;
9256;SDS011;4665;51.368;6.782;2023-05-07T14:58:22;4.93;;;4.53;;
9256;SDS011;4665;51.368;6.782;2023-05-07T15:00:47;6.57;;;5.23;;
9256;SDS011;4665;51.368;6.782;2023-05-07T15:03:13;4.60;;;4.30;;
9256;SDS011;4665;51.368;6.782;2023-05-07T15:05:39;5.37;;;4.87;;
9256;SDS011;4665;51.368;6.782;2023-05-07T15:08:04;4.90;;;4.30;;
9256;SDS011;4665;51.368;6.782;2023-05-07T15:10:30;4.83;;;4.43;;
9256;SDS011;4665;51.368;6.782;2023-05-07T15:12:55;4.20;;;3.90;;
9256;SDS011;4665;51.368;6.782;2023-05-07T15:15:20;4.43;;;4.13;;
9256;SDS011;4665;51.368;6.782;2023-05-07T15:17:46;5.47;;;4.50;;
9256;SDS011;4665;51.368;6.782;2023-05-07T15:20:11;5.13;;;4.70;;
9256;SDS011;4665;51.368;6.782;2023-05-07T15:22:37;5.37;;;4.97;;
9256;SDS011;4665;51.368;6.782;2023-05-07T15:25:03;4.60;;;4.30;;
9256;SDS011;4665;51.368;6.782;2023-05-07T15:27:29;5.60;;;4.53;;